createdAt,value
2017-11-07T00:00:39.903Z,25.30
2017-11-07T00:03:07.527Z,20.62
2017-11-07T00:05:35.164Z,23.15
2017-11-07T00:08:02.822Z,24.12
2017-11-07T00:10:30.450Z,21.62
2017-11-07T00:12:58.835Z,21.83
2017-11-07T00:15:26.496Z,22.13
2017-11-07T00:17:54.132Z,21.83
2017-11-07T00:20:21.769Z,27.08
2017-11-07T00:22:49.431Z,31.37
2017-11-07T00:25:17.055Z,25.67
2017-11-07T00:27:44.709Z,22.90
2017-11-07T00:30:12.371Z,23.65
2017-11-07T00:32:40.032Z,29.27
2017-11-07T00:35:07.671Z,30.48
2017-11-07T00:37:35.339Z,27.15
2017-11-07T00:40:02.963Z,27.08
2017-11-07T00:42:30.611Z,26.40
2017-11-07T00:44:58.271Z,29.08
2017-11-07T00:47:25.906Z,30.23
2017-11-07T00:49:53.534Z,27.50
2017-11-07T00:52:21.203Z,29.95
2017-11-07T00:54:48.837Z,29.92
2017-11-07T00:57:16.475Z,34.58
2017-11-07T00:59:44.143Z,32.75
2017-11-07T01:02:11.817Z,26.75
2017-11-07T01:04:39.481Z,28.92
2017-11-07T01:07:07.124Z,29.17
2017-11-07T01:09:35.511Z,29.15
2017-11-07T01:12:03.166Z,27.70
2017-11-07T01:14:30.797Z,27.40
2017-11-07T01:16:59.221Z,27.73
2017-11-07T01:19:26.855Z,25.88
2017-11-07T01:21:54.503Z,35.20
2017-11-07T01:24:22.167Z,29.12
2017-11-07T01:26:49.807Z,34.88
2017-11-07T01:29:17.501Z,27.17
2017-11-07T01:31:45.137Z,29.25
2017-11-07T01:34:13.538Z,25.80
2017-11-07T01:36:41.199Z,27.92
2017-11-07T01:39:08.822Z,31.40
2017-11-07T01:41:36.499Z,29.00
2017-11-07T01:44:04.140Z,30.62
2017-11-07T01:46:31.770Z,29.08
2017-11-07T01:48:59.429Z,31.98
2017-11-07T01:51:27.077Z,29.50
2017-11-07T01:53:54.778Z,30.92
2017-11-07T01:56:23.176Z,32.75
2017-11-07T01:58:50.819Z,26.92
2017-11-07T02:01:18.483Z,29.00
2017-11-07T02:03:46.120Z,35.85
2017-11-07T02:06:13.788Z,32.47
2017-11-07T02:08:41.419Z,27.80
2017-11-07T02:11:09.088Z,37.53
2017-11-07T02:13:36.743Z,29.58
2017-11-07T02:16:04.391Z,34.40
2017-11-07T02:18:32.051Z,33.95
2017-11-07T02:20:59.673Z,34.13
2017-11-07T02:23:27.300Z,35.70
2017-11-07T02:25:54.960Z,30.25
2017-11-07T02:28:22.598Z,41.80
2017-11-07T02:30:50.256Z,29.15
2017-11-07T02:33:17.884Z,29.37
2017-11-07T02:35:45.525Z,36.13
2017-11-07T02:38:13.193Z,42.40
2017-11-07T02:40:41.281Z,36.47
2017-11-07T02:43:08.946Z,31.45
2017-11-07T02:45:36.587Z,31.40
2017-11-07T02:48:04.231Z,32.60
2017-11-07T02:50:31.921Z,32.05
2017-11-07T02:52:59.579Z,39.17
2017-11-07T02:55:27.270Z,33.05
2017-11-07T02:57:55.662Z,32.03
2017-11-07T03:00:23.283Z,36.50
2017-11-07T03:02:51.719Z,31.98
2017-11-07T03:05:19.352Z,37.55
2017-11-07T03:07:47.016Z,35.65
2017-11-07T03:10:14.646Z,28.60
2017-11-07T03:12:42.274Z,29.80
2017-11-07T03:15:09.936Z,34.13
2017-11-07T03:17:37.582Z,29.25
2017-11-07T03:20:05.247Z,29.50
2017-11-07T03:22:32.874Z,27.70
2017-11-07T03:25:00.509Z,29.77
2017-11-07T03:27:28.180Z,23.33
2017-11-07T03:29:55.820Z,27.60
2017-11-07T03:32:23.482Z,34.47
2017-11-07T03:34:51.878Z,26.23
2017-11-07T03:37:19.514Z,32.15
2017-11-07T03:39:47.939Z,23.70
2017-11-07T03:42:15.553Z,33.75
2017-11-07T03:44:43.218Z,23.10
2017-11-07T03:47:10.838Z,31.52
2017-11-07T03:49:38.475Z,32.33
2017-11-07T03:52:06.147Z,35.65
2017-11-07T03:54:33.773Z,28.70
2017-11-07T03:57:01.475Z,25.02
2017-11-07T03:59:29.117Z,27.02
2017-11-07T04:01:56.747Z,33.55
2017-11-07T04:04:24.408Z,35.58
2017-11-07T04:06:52.056Z,24.10
2017-11-07T04:09:19.740Z,28.48
2017-11-07T04:11:47.367Z,31.65
2017-11-07T04:14:15.755Z,23.17
2017-11-07T04:16:43.403Z,27.83
2017-11-07T04:19:11.030Z,23.20
2017-11-07T04:21:39.485Z,25.85
2017-11-07T04:24:07.126Z,23.27
2017-11-07T04:26:34.758Z,25.48
2017-11-07T04:29:02.417Z,26.60
2017-11-07T04:31:30.036Z,25.60
2017-11-07T04:33:57.699Z,27.33
2017-11-07T04:36:25.326Z,23.50
2017-11-07T04:38:52.958Z,27.80
2017-11-07T04:41:20.629Z,32.38
2017-11-07T04:43:48.249Z,23.87
2017-11-07T04:46:15.910Z,27.73
2017-11-07T04:48:43.535Z,30.98
2017-11-07T04:51:11.222Z,28.15
2017-11-07T04:53:38.883Z,25.35
2017-11-07T04:56:06.507Z,28.23
2017-11-07T04:58:34.174Z,25.75
2017-11-07T05:01:02.296Z,23.55
2017-11-07T05:03:30.694Z,31.80
2017-11-07T05:05:58.383Z,36.22
2017-11-07T05:08:26.012Z,30.20
2017-11-07T05:10:54.450Z,24.83
2017-11-07T05:13:22.076Z,30.25
2017-11-07T05:15:49.703Z,24.42
2017-11-07T05:18:17.355Z,21.37
2017-11-07T05:20:44.986Z,28.48
2017-11-07T05:23:12.656Z,28.85
2017-11-07T05:25:40.270Z,25.17
2017-11-07T05:28:07.894Z,25.17
2017-11-07T05:30:36.331Z,27.37
2017-11-07T05:33:03.975Z,27.42
2017-11-07T05:35:31.630Z,25.88
2017-11-07T05:37:59.259Z,23.05
2017-11-07T05:40:26.916Z,24.45
2017-11-07T05:42:54.571Z,23.23
2017-11-07T05:45:22.194Z,25.85
2017-11-07T05:47:49.852Z,26.92
2017-11-07T05:50:17.480Z,25.35
2017-11-07T05:52:45.108Z,25.40
2017-11-07T05:55:12.773Z,27.45
2017-11-07T05:57:40.403Z,24.83
2017-11-07T06:00:08.067Z,27.58
2017-11-07T06:02:35.692Z,28.30
2017-11-07T06:05:03.337Z,32.72
2017-11-07T06:07:30.999Z,31.23
2017-11-07T06:09:58.618Z,28.77
2017-11-07T06:12:27.042Z,27.92
2017-11-07T06:14:54.666Z,31.23
2017-11-07T06:17:22.277Z,23.92
2017-11-07T06:19:50.697Z,26.55
2017-11-07T06:22:18.324Z,33.97
2017-11-07T06:24:45.984Z,26.23
2017-11-07T06:27:13.599Z,23.80
2017-11-07T06:29:41.304Z,25.45
2017-11-07T06:32:08.964Z,28.00
2017-11-07T06:34:37.362Z,32.30
2017-11-07T06:37:05.011Z,29.55
2017-11-07T06:39:33.255Z,25.85
2017-11-07T06:42:00.890Z,24.73
2017-11-07T06:44:28.567Z,30.02
2017-11-07T06:46:56.199Z,27.08
2017-11-07T06:49:24.671Z,34.22
2017-11-07T06:51:52.297Z,32.92
2017-11-07T06:54:19.923Z,23.92
2017-11-07T06:56:47.579Z,27.02
2017-11-07T06:59:15.218Z,26.52
2017-11-07T07:01:42.871Z,31.12
2017-11-07T07:04:10.507Z,24.60
2017-11-07T07:06:38.823Z,24.05
2017-11-07T07:09:07.430Z,25.45
2017-11-07T07:11:35.066Z,27.67
2017-11-07T07:14:03.490Z,31.33
2017-11-07T07:16:31.635Z,29.77
2017-11-07T07:18:59.628Z,25.83
2017-11-07T07:21:27.423Z,28.80
2017-11-07T07:23:55.487Z,32.92
2017-11-07T07:26:23.608Z,32.20
2017-11-07T07:28:52.015Z,30.80
2017-11-07T07:31:19.667Z,33.63
2017-11-07T07:33:47.328Z,34.10
2017-11-07T07:36:14.945Z,35.20
2017-11-07T07:38:42.611Z,29.40
2017-11-07T07:41:10.258Z,38.80
2017-11-07T07:43:37.879Z,36.85
2017-11-07T07:46:05.555Z,38.40
2017-11-07T07:48:33.199Z,41.25
2017-11-07T07:51:00.845Z,33.40
2017-11-07T07:53:28.473Z,43.25
2017-11-07T07:55:56.110Z,36.15
2017-11-07T07:58:23.778Z,30.88
2017-11-07T08:00:51.402Z,37.58
2017-11-07T08:03:19.059Z,41.22
2017-11-07T08:05:46.677Z,41.17
2017-11-07T08:08:14.303Z,42.90
2017-11-07T08:10:41.963Z,44.17
2017-11-07T08:13:09.586Z,31.35
2017-11-07T08:15:38.023Z,44.50
2017-11-07T08:18:05.643Z,39.20
2017-11-07T08:20:33.276Z,48.08
2017-11-07T08:23:00.944Z,40.58
2017-11-07T08:25:28.643Z,35.17
2017-11-07T08:27:57.076Z,33.42
2017-11-07T08:30:24.699Z,40.03
2017-11-07T08:32:52.332Z,36.47
2017-11-07T08:35:19.980Z,37.00
2017-11-07T08:37:47.623Z,33.90
2017-11-07T08:40:15.284Z,34.55
2017-11-07T08:42:42.899Z,35.55
2017-11-07T08:45:10.536Z,43.08
2017-11-07T08:47:38.962Z,40.53
2017-11-07T08:50:06.589Z,42.00
2017-11-07T08:52:35.037Z,43.42
2017-11-07T08:55:03.459Z,48.25
2017-11-07T08:57:31.097Z,38.75
2017-11-07T08:59:58.753Z,36.53
2017-11-07T09:02:26.371Z,35.30
2017-11-07T09:04:54.040Z,38.22
2017-11-07T09:07:21.674Z,45.72
2017-11-07T09:09:49.305Z,40.08
2017-11-07T09:12:16.963Z,38.03
2017-11-07T09:14:44.587Z,52.60
2017-11-07T09:17:12.289Z,36.05
2017-11-07T09:19:40.674Z,48.25
2017-11-07T09:22:08.809Z,49.55
2017-11-07T09:24:37.230Z,47.75
2017-11-07T09:27:04.861Z,46.65
2017-11-07T09:29:32.521Z,39.90
2017-11-07T09:32:00.142Z,41.70
2017-11-07T09:34:27.768Z,43.10
2017-11-07T09:36:56.205Z,47.17
2017-11-07T09:39:23.890Z,42.62
2017-11-07T09:41:51.554Z,40.92
2017-11-07T09:44:19.187Z,35.40
2017-11-07T09:46:46.808Z,41.47
2017-11-07T09:49:15.253Z,45.20
2017-11-07T09:51:42.879Z,39.45
2017-11-07T09:54:10.530Z,45.78
2017-11-07T09:56:38.174Z,47.62
2017-11-07T09:59:05.805Z,45.25
2017-11-07T10:01:33.469Z,48.42
2017-11-07T10:04:01.128Z,39.08
2017-11-07T10:06:28.791Z,41.20
2017-11-07T10:08:56.411Z,40.10
2017-11-07T10:11:24.041Z,48.70
2017-11-07T10:13:52.471Z,43.67
2017-11-07T10:16:20.102Z,48.95
2017-11-07T10:18:48.047Z,47.22
2017-11-07T10:21:15.686Z,47.70
2017-11-07T10:23:43.306Z,44.65
2017-11-07T10:26:10.955Z,50.53
2017-11-07T10:28:38.570Z,52.88
2017-11-07T10:31:06.230Z,49.20
2017-11-07T10:33:33.872Z,40.47
2017-11-07T10:36:01.552Z,48.00
2017-11-07T10:38:29.571Z,41.90
2017-11-07T10:40:57.211Z,40.92
2017-11-07T10:43:24.875Z,41.10
2017-11-07T10:45:53.263Z,45.72
2017-11-07T10:48:20.892Z,43.03
2017-11-07T10:50:49.314Z,39.58
2017-11-07T10:53:16.931Z,39.63
2017-11-07T10:55:44.590Z,43.03
2017-11-07T10:58:12.206Z,42.35
2017-11-07T11:00:41.693Z,38.10
2017-11-07T11:03:09.346Z,37.45
2017-11-07T11:05:36.990Z,40.20
2017-11-07T11:08:04.644Z,34.35
2017-11-07T11:10:32.276Z,37.22
2017-11-07T11:12:59.901Z,38.97
2017-11-07T11:15:27.639Z,30.37
2017-11-07T11:17:55.270Z,28.05
2017-11-07T11:20:22.917Z,28.10
2017-11-07T11:22:50.542Z,30.92
2017-11-07T11:25:18.179Z,29.77
2017-11-07T11:27:45.843Z,35.22
2017-11-07T11:30:13.478Z,32.08
2017-11-07T11:32:42.214Z,29.27
2017-11-07T11:35:09.855Z,33.40
2017-11-07T11:37:37.554Z,30.30
2017-11-07T11:40:06.022Z,30.02
2017-11-07T11:42:33.654Z,32.05
2017-11-07T11:45:01.320Z,31.25
2017-11-07T11:47:28.941Z,28.10
2017-11-07T11:49:56.589Z,29.12
2017-11-07T11:52:25.046Z,30.77
2017-11-07T11:54:52.851Z,30.42
2017-11-07T11:57:20.538Z,28.10
2017-11-07T11:59:48.167Z,28.35
2017-11-07T12:02:15.798Z,26.92
2017-11-07T12:04:43.446Z,28.98
2017-11-07T12:07:11.068Z,30.60
2017-11-07T12:09:38.725Z,26.10
2017-11-07T12:12:06.378Z,29.67
2017-11-07T12:14:33.994Z,26.60
2017-11-07T12:17:02.419Z,29.00
2017-11-07T12:19:30.053Z,29.95
2017-11-07T12:21:59.214Z,31.08
2017-11-07T12:24:26.847Z,28.15
2017-11-07T12:26:54.473Z,25.25
2017-11-07T12:29:22.906Z,28.33
2017-11-07T12:31:50.527Z,27.45
2017-11-07T12:34:18.178Z,30.02
2017-11-07T12:36:45.811Z,26.55
2017-11-07T12:39:14.195Z,31.25
2017-11-07T12:41:41.850Z,26.45
2017-11-07T12:44:09.467Z,24.55
2017-11-07T12:46:37.897Z,28.52
2017-11-07T12:49:05.522Z,25.45
2017-11-07T12:51:45.180Z,23.92
2017-11-07T12:54:12.812Z,25.90
2017-11-07T12:56:40.447Z,24.87
2017-11-07T12:59:08.107Z,28.12
2017-11-07T13:01:35.730Z,24.15
2017-11-07T13:04:03.390Z,23.55
2017-11-07T13:06:31.005Z,23.55
2017-11-07T13:08:58.627Z,28.40
2017-11-07T13:11:27.156Z,24.73
2017-11-07T13:13:54.794Z,24.85
2017-11-07T13:16:22.469Z,30.85
2017-11-07T13:18:50.100Z,27.92
2017-11-07T13:21:17.728Z,23.70
2017-11-07T13:23:45.392Z,28.48
2017-11-07T13:26:13.020Z,29.12
2017-11-07T13:28:40.714Z,28.38
2017-11-07T13:31:08.332Z,29.33
2017-11-07T13:33:35.947Z,29.63
2017-11-07T13:36:03.628Z,27.02
2017-11-07T13:38:31.250Z,27.67
2017-11-07T13:40:58.906Z,25.77
2017-11-07T13:43:26.544Z,27.17
2017-11-07T13:45:54.182Z,26.30
2017-11-07T13:48:21.955Z,30.33
2017-11-07T13:50:49.600Z,23.75
2017-11-07T13:53:18.010Z,29.08
2017-11-07T13:55:45.633Z,25.73
2017-11-07T13:58:13.266Z,27.58
2017-11-07T14:00:41.846Z,30.30
2017-11-07T14:03:09.477Z,25.83
2017-11-07T14:05:37.131Z,29.45
2017-11-07T14:08:04.763Z,28.85
2017-11-07T14:10:33.181Z,28.70
2017-11-07T14:13:00.828Z,26.80
2017-11-07T14:15:28.458Z,25.02
2017-11-07T14:17:56.121Z,25.05
2017-11-07T14:20:23.748Z,27.00
2017-11-07T14:22:51.390Z,27.98
2017-11-07T14:25:19.067Z,28.33
2017-11-07T14:27:46.693Z,24.73
2017-11-07T14:30:14.343Z,25.50
2017-11-07T14:32:41.963Z,25.25
2017-11-07T14:35:09.579Z,27.23
2017-11-07T14:37:37.240Z,25.62
2017-11-07T14:40:04.870Z,24.87
2017-11-07T14:42:32.535Z,20.48
2017-11-07T14:45:00.938Z,21.67
2017-11-07T14:47:28.566Z,22.65
2017-11-07T14:49:56.219Z,23.02
2017-11-07T14:52:23.843Z,19.42
2017-11-07T14:54:52.277Z,22.00
2017-11-07T14:57:19.910Z,20.23
2017-11-07T14:59:47.559Z,23.42
2017-11-07T15:02:15.267Z,22.05
2017-11-07T15:04:42.900Z,20.25
2017-11-07T15:07:11.332Z,20.25
2017-11-07T15:09:38.970Z,21.27
2017-11-07T15:12:06.598Z,24.20
2017-11-07T15:14:34.263Z,24.37
2017-11-07T15:17:01.902Z,24.42
2017-11-07T15:19:29.567Z,24.50
2017-11-07T15:21:57.201Z,22.95
2017-11-07T15:24:24.826Z,23.62
2017-11-07T15:26:52.487Z,24.50
2017-11-07T15:29:20.122Z,22.90
2017-11-07T15:31:49.315Z,23.48
2017-11-07T15:34:16.953Z,22.02
2017-11-07T15:36:45.394Z,23.08
2017-11-07T15:39:13.042Z,23.55
2017-11-07T15:41:41.451Z,22.33
2017-11-07T15:44:09.114Z,23.08
2017-11-07T15:46:36.734Z,23.70
2017-11-07T15:49:04.366Z,22.60
2017-11-07T15:51:32.018Z,25.58
2017-11-07T15:53:59.651Z,26.27
2017-11-07T15:56:27.310Z,26.17
2017-11-07T15:58:55.820Z,25.52
2017-11-07T16:01:23.435Z,27.90
2017-11-07T16:03:51.866Z,25.85
2017-11-07T16:06:19.496Z,25.15
2017-11-07T16:08:47.162Z,26.90
2017-11-07T16:11:14.803Z,24.37
2017-11-07T16:13:42.445Z,25.95
2017-11-07T16:16:10.100Z,26.65
2017-11-07T16:18:37.736Z,25.67
2017-11-07T16:21:05.731Z,26.67
2017-11-07T16:23:33.429Z,25.73
2017-11-07T16:26:01.082Z,26.08
2017-11-07T16:28:29.698Z,26.55
2017-11-07T16:30:58.123Z,27.40
2017-11-07T16:33:25.777Z,27.85
2017-11-07T16:35:53.470Z,27.20
2017-11-07T16:38:21.886Z,26.20
2017-11-07T16:40:49.537Z,26.52
2017-11-07T16:43:17.804Z,29.58
2017-11-07T16:45:46.483Z,28.67
2017-11-07T16:48:14.905Z,32.03
2017-11-07T16:50:42.542Z,28.08
2017-11-07T16:53:10.207Z,25.37
2017-11-07T16:55:37.915Z,28.17
2017-11-07T16:58:06.356Z,25.98
2017-11-07T17:00:34.751Z,31.23
2017-11-07T17:03:02.546Z,31.65
2017-11-07T17:05:30.215Z,27.08
2017-11-07T17:07:57.839Z,27.65
2017-11-07T17:10:25.494Z,30.05
2017-11-07T17:12:53.110Z,27.27
2017-11-07T17:15:20.749Z,29.15
2017-11-07T17:17:48.395Z,27.00
2017-11-07T17:20:16.040Z,26.33
2017-11-07T17:22:43.709Z,29.17
2017-11-07T17:25:11.334Z,29.20
2017-11-07T17:27:39.111Z,28.73
2017-11-07T17:30:06.782Z,28.83
2017-11-07T17:32:34.454Z,28.77
2017-11-07T17:35:02.897Z,29.65
2017-11-07T17:37:30.592Z,25.85
2017-11-07T17:39:58.715Z,29.63
2017-11-07T17:42:26.464Z,28.25
2017-11-07T17:44:54.877Z,28.45
2017-11-07T17:47:22.562Z,26.12
2017-11-07T17:49:50.211Z,28.73
2017-11-07T17:52:18.611Z,27.52
2017-11-07T17:54:46.342Z,29.45
2017-11-07T17:57:14.751Z,28.42
2017-11-07T17:59:42.429Z,29.33
2017-11-07T18:02:10.054Z,31.23
2017-11-07T18:04:37.679Z,29.85
2017-11-07T18:07:05.346Z,30.02
2017-11-07T18:09:32.978Z,30.20
2017-11-07T18:12:00.632Z,31.58
2017-11-07T18:14:28.262Z,33.63
2017-11-07T18:16:55.902Z,29.35
2017-11-07T18:19:24.428Z,32.67
2017-11-07T18:21:52.190Z,34.50
2017-11-07T18:24:21.286Z,35.08
2017-11-07T18:26:48.906Z,32.88
2017-11-07T18:29:16.535Z,34.63
2017-11-07T18:31:44.191Z,31.00
2017-11-07T18:34:11.819Z,33.33
2017-11-07T18:36:39.495Z,39.17
2017-11-07T18:39:07.894Z,37.85
2017-11-07T18:41:35.517Z,42.10
2017-11-07T18:44:03.950Z,34.88
2017-11-07T18:46:31.595Z,36.38
2017-11-07T18:48:59.259Z,39.67
2017-11-07T18:51:26.916Z,33.47
2017-11-07T18:53:55.312Z,38.70
2017-11-07T18:56:22.966Z,36.47
2017-11-07T18:58:50.767Z,48.03
2017-11-07T19:01:18.429Z,47.20
2017-11-07T19:03:46.830Z,41.92
2017-11-07T19:06:14.462Z,39.33
2017-11-07T19:08:42.167Z,39.67
2017-11-07T19:11:10.566Z,43.80
2017-11-07T19:13:38.309Z,45.78
2017-11-07T19:16:05.954Z,45.67
2017-11-07T19:18:34.347Z,47.83
2017-11-07T19:21:02.035Z,51.97
2017-11-07T19:23:29.706Z,47.85
2017-11-07T19:25:58.209Z,50.72
2017-11-07T19:28:25.841Z,53.63
2017-11-07T19:30:53.475Z,51.17
2017-11-07T19:33:21.146Z,51.15
2017-11-07T19:35:48.791Z,51.17
2017-11-07T19:38:16.586Z,54.88
2017-11-07T19:40:44.303Z,50.58
2017-11-07T19:43:12.043Z,51.97
2017-11-07T19:45:39.708Z,53.25
2017-11-07T19:48:07.342Z,51.35
2017-11-07T19:50:35.019Z,51.63
2017-11-07T19:53:02.659Z,51.65
2017-11-07T19:55:30.289Z,50.60
2017-11-07T19:57:57.969Z,50.95
2017-11-07T20:00:25.594Z,57.15
2017-11-07T20:02:53.253Z,60.47
2017-11-07T20:05:20.903Z,50.75
2017-11-07T20:07:48.618Z,52.10
2017-11-07T20:10:16.288Z,57.25
2017-11-07T20:12:43.914Z,55.10
2017-11-07T20:17:46.261Z,63.50
2017-11-07T20:20:13.928Z,56.22
2017-11-07T20:22:41.568Z,59.65
2017-11-07T20:25:09.237Z,58.50
2017-11-07T20:27:36.914Z,53.13
2017-11-07T20:30:05.315Z,61.90
2017-11-07T20:32:32.982Z,59.50
2017-11-07T20:35:00.614Z,56.60
2017-11-07T20:37:28.269Z,59.05
2017-11-07T20:39:55.919Z,67.10
2017-11-07T20:42:23.790Z,64.22
2017-11-07T20:44:51.482Z,61.08
2017-11-07T20:47:19.112Z,61.70
2017-11-07T20:49:47.792Z,59.80
2017-11-07T20:52:16.351Z,60.03
2017-11-07T20:54:44.740Z,65.25
2017-11-07T20:57:12.417Z,70.50
2017-11-07T20:59:40.055Z,74.43
2017-11-07T21:02:07.976Z,74.28
2017-11-07T21:04:35.675Z,73.72
2017-11-07T21:07:03.314Z,71.18
2017-11-07T21:09:30.979Z,68.25
2017-11-07T21:11:58.754Z,75.65
2017-11-07T21:14:27.163Z,70.87
2017-11-07T21:16:54.827Z,72.70
2017-11-07T21:19:22.455Z,74.25
2017-11-07T21:21:51.110Z,70.40
2017-11-07T21:24:18.738Z,79.68
2017-11-07T21:26:46.425Z,71.05
2017-11-07T21:29:14.066Z,75.25
2017-11-07T21:31:41.683Z,81.07
2017-11-07T21:34:09.472Z,78.25
2017-11-07T21:36:37.215Z,74.55
2017-11-07T21:39:04.829Z,77.25
2017-11-07T21:41:32.481Z,76.12
2017-11-07T21:44:00.102Z,77.35
2017-11-07T21:46:28.585Z,75.55
2017-11-07T21:48:56.216Z,82.32
2017-11-07T21:51:23.833Z,71.35
2017-11-07T21:53:51.482Z,73.78
2017-11-07T21:56:19.105Z,83.00
2017-11-07T21:58:46.763Z,69.65
2017-11-07T22:01:14.395Z,79.18
2017-11-07T22:03:42.015Z,67.97
2017-11-07T22:06:09.896Z,78.12
2017-11-07T22:08:38.074Z,80.53
2017-11-07T22:11:05.726Z,65.53
2017-11-07T22:13:33.493Z,76.47
2017-11-07T22:16:01.960Z,62.97
2017-11-07T22:18:31.608Z,61.30
2017-11-07T22:20:59.230Z,69.07
2017-11-07T22:23:26.878Z,70.62
2017-11-07T22:25:54.492Z,63.58
2017-11-07T22:28:22.910Z,79.00
2017-11-07T22:30:50.530Z,74.50
2017-11-07T22:33:18.154Z,73.32
2017-11-07T22:35:46.566Z,68.85
2017-11-07T22:38:14.191Z,76.37
2017-11-07T22:40:42.110Z,62.42
2017-11-07T22:43:09.742Z,62.08
2017-11-07T22:45:40.641Z,78.62
2017-11-07T22:48:09.092Z,83.78
2017-11-07T22:50:37.022Z,63.97
2017-11-07T22:53:04.705Z,57.15
2017-11-07T22:55:32.395Z,84.80
2017-11-07T22:58:00.796Z,72.03
2017-11-07T23:00:28.459Z,68.22
2017-11-07T23:02:56.088Z,60.65
2017-11-07T23:05:23.754Z,68.82
2017-11-07T23:07:51.392Z,61.58
2017-11-07T23:10:19.034Z,56.90
2017-11-07T23:12:46.690Z,80.15
2017-11-07T23:15:14.331Z,65.40
2017-11-07T23:17:41.990Z,62.20
2017-11-07T23:20:09.605Z,56.75
2017-11-07T23:22:37.420Z,53.72
2017-11-07T23:25:05.851Z,55.75
2017-11-07T23:27:33.488Z,77.82
2017-11-07T23:30:01.212Z,51.78
2017-11-07T23:32:28.838Z,69.87
2017-11-07T23:34:56.475Z,68.37
2017-11-07T23:37:24.136Z,57.97
2017-11-07T23:39:52.543Z,68.43
2017-11-07T23:42:20.214Z,52.40
2017-11-07T23:44:47.841Z,57.47
2017-11-07T23:47:15.466Z,55.38
2017-11-07T23:49:43.119Z,54.30
2017-11-07T23:52:10.740Z,55.60
2017-11-07T23:54:38.406Z,53.50
2017-11-07T23:57:06.031Z,69.50
2017-11-07T23:59:33.651Z,54.00
